OIKQ  Dayrestan  Airport

Iran

Add Bookmark
ICAO OIKQ
Type Airport
Status Operational
Latitude
26° 45' 16" N
26.754601
Longitude
55° 54' 8" E
55.902401
Local (DST + 5) UTC (GMT + 4)
Jul 29, 2015 05:59 Jul 29, 2015 13:29
Sunrise-Sunset Local UTC
Begin Civil Twilight 05:43 01:13
Sunrise 06:08 01:38
Sunset 07:37 15:07
End Civil Twilight 08:02 15:32
VFR
VFR
MVFR
MVFR
IFR
IFR
LIFR
LIFR
Unknown
Unavailable

Current Weather

METAR Observed IFR
OIKQ 291300Z 22018KT 3000 SA FEW025CB FEW100 36/29 Q0994 Wed, Jul 29, 2015 @ 13:00 UTC
(29 Minutes ago)
Instrument Flight Rules
Wind Visibility Clouds Conditions
220° at 18 knots (33 kph) 2,993 m
  • Few at 2,500 ft AGL
  • Few at 10,000 ft AGL
  • Sand
Temperatures Readings Precipitation
Current Temp
36°C
97°F
Dewpoint
29°C
84°F
Heat Index
53°C
127°
Humidity 67%
Altimeter 29.35" Hg
Sea Level Pressure 994 mb
Field Elevation
12 m
39 ft
None Recorded

Additional weather within a 92.6km radius of OIKQ

Map ICAO Location
OIKB 69.8km NE (042°)
VFR
VFR
MVFR
MVFR
IFR
IFR
LIFR
LIFR
Unknown
Unavailable
-
-

CheckWX.com is intended as a tool to help pilots better visualize weather data. It is not intended as a substitute for an official weather briefing obtained from a Flight Service Station. CheckWX.com does not meet the FAA requirements for an official pre-flight weather briefing. Therefore, it's important that pilots still call and obtain an official FSS pre-flight weather briefing.

© 2007-2015 CheckWX.com
13:29:29 UTC